SBGO/GYN METAR and TAF weather

Enter ICAO airport designator
Station Type Date Time Source
SBGO METAR 2019/08/23 16:00 UTC NOAA

SBGO 231600Z 19007KT 9999 FEW045 32/06 Q1020


Station Type Date Time Source
SBGO Decoded METAR 2019/08/23 16:00 UTC NOAA

Station name not available
Aug 23, 2019 - 12:00 PM EDT / 2019.08.23 1600 UTC
Wind: from the S (190 degrees) at 8 MPH (7 KT):0
Visibility: greater than 7 mile(s):0
Sky conditions: mostly clear
Temperature: 89 F (32 C)
Dew Point: 42 F (6 C)
Relative Humidity: 19%
Pressure (altimeter): 30.12 in. Hg (1020 hPa)
ob: SBGO 231600Z 19007KT 9999 FEW045 32/06 Q1020
cycle: 16

Station Type Date Time Source
SBGO TAF 2019/08/23 12:30 UTC NOAA

TAF SBGO 231000Z 2312/2412 12008KT CAVOK TX33/2318Z TN19/2408Z
BECMG 2316/2318 15005KT
BECMG 2404/2406 12008KT
RMK PFF

Example: see airport list